TimeEST,TemperatureF,Dew PointF,Humidity,Sea Level PressureIn,VisibilityMPH,Wind Direction,Wind SpeedMPH,Gust SpeedMPH,PrecipitationIn,Events,Conditions,WindDirDegrees,DateUTC
12:53 AM,39.9,19.9,45,30.06,10.0,Calm,Calm,-,N/A,,Overcast,0,2014-02-01 05:53:00
1:53 AM,39.9,21.0,47,30.06,10.0,East,3.5,-,N/A,,Overcast,90,2014-02-01 06:53:00
2:53 AM,41.0,21.0,45,30.04,10.0,Calm,Calm,-,N/A,,Overcast,0,2014-02-01 07:53:00
3:53 AM,42.1,23.0,47,30.03,10.0,SSE,3.5,-,N/A,,Overcast,150,2014-02-01 08:53:00
4:53 AM,44.1,24.1,45,30.02,10.0,SSE,4.6,-,N/A,,Overcast,150,2014-02-01 09:53:00
5:53 AM,43.0,24.1,47,30.01,10.0,Calm,Calm,-,N/A,,Overcast,0,2014-02-01 10:53:00
6:53 AM,45.0,23.0,42,30.01,10.0,South,4.6,-,N/A,,Overcast,170,2014-02-01 11:53:00
7:53 AM,46.0,21.9,39,29.99,10.0,SSE,3.5,-,N/A,,Overcast,150,2014-02-01 12:53:00
8:53 AM,48.0,19.9,33,29.98,10.0,South,6.9,-,N/A,,Overcast,170,2014-02-01 13:53:00
9:53 AM,50.0,19.0,29,29.97,10.0,South,12.7,18.4,N/A,,Overcast,190,2014-02-01 14:53:00
10:53 AM,52.0,21.9,31,29.97,10.0,South,10.4,-,N/A,,Overcast,180,2014-02-01 15:53:00
11:53 AM,54.0,25.0,33,29.94,10.0,South,9.2,-,N/A,,Overcast,180,2014-02-01 16:53:00
12:53 PM,57.0,27.0,32,29.92,10.0,SSW,13.8,24.2,N/A,,Partly Cloudy,210,2014-02-01 17:53:00
1:53 PM,60.1,32.0,35,29.90,10.0,SSW,19.6,29.9,N/A,,Mostly Cloudy,210,2014-02-01 18:53:00
2:53 PM,61.0,32.0,34,29.88,10.0,South,11.5,19.6,N/A,,Overcast,190,2014-02-01 19:53:00
3:53 PM,61.0,37.0,41,29.86,10.0,SSW,17.3,25.3,N/A,,Scattered Clouds,200,2014-02-01 20:53:00
4:53 PM,61.0,37.9,42,29.86,10.0,SSW,9.2,-,N/A,,Overcast,210,2014-02-01 21:53:00
5:53 PM,60.1,37.9,44,29.86,10.0,South,9.2,-,N/A,,Mostly Cloudy,190,2014-02-01 22:53:00
6:53 PM,59.0,37.0,44,29.88,10.0,South,9.2,-,N/A,,Overcast,180,2014-02-01 23:53:00
7:53 PM,57.9,39.0,49,29.90,10.0,South,4.6,-,N/A,,Overcast,190,2014-02-02 00:53:00
8:53 PM,57.9,41.0,53,29.91,10.0,SW,6.9,-,N/A,,Overcast,220,2014-02-02 01:53:00
9:53 PM,57.0,42.1,57,29.93,10.0,WSW,4.6,-,N/A,,Overcast,240,2014-02-02 02:53:00
10:53 PM,55.9,43.0,62,29.94,10.0,WSW,8.1,-,N/A,,Overcast,240,2014-02-02 03:53:00
11:30 PM,53.6,42.8,67,29.94,10.0,WSW,4.6,-,N/A,,Overcast,240,2014-02-02 04:30:00
11:53 PM,54.0,44.1,69,29.94,10.0,SW,5.8,-,N/A,,Overcast,230,2014-02-02 04:53:00